createdAt,value
2022-11-17T00:01:18.832Z,9.54
2022-11-17T00:03:49.559Z,9.52
2022-11-17T00:06:17.284Z,9.50
2022-11-17T00:08:43.871Z,9.50
2022-11-17T00:11:10.447Z,9.48
2022-11-17T00:13:55.413Z,9.47
2022-11-17T00:16:22.517Z,9.46
2022-11-17T00:19:07.539Z,9.43
2022-11-17T00:21:34.446Z,9.43
2022-11-17T00:24:00.774Z,9.42
2022-11-17T00:26:32.464Z,9.41
2022-11-17T00:29:01.351Z,9.38
2022-11-17T00:31:48.498Z,9.37
2022-11-17T00:34:17.506Z,9.38
2022-11-17T00:36:46.239Z,9.38
2022-11-17T00:39:14.299Z,9.39
2022-11-17T00:41:40.995Z,9.37
2022-11-17T00:44:08.155Z,9.39
2022-11-17T00:46:37.141Z,9.39
2022-11-17T00:49:07.464Z,9.40
2022-11-17T00:51:34.081Z,9.39
2022-11-17T00:54:00.822Z,9.38
2022-11-17T00:56:27.691Z,9.39
2022-11-17T00:58:54.285Z,9.39
2022-11-17T01:01:21.373Z,9.39
2022-11-17T01:03:48.743Z,9.39
2022-11-17T01:06:18.376Z,9.38
2022-11-17T01:08:45.573Z,9.37
2022-11-17T01:11:21.564Z,9.39
2022-11-17T01:13:48.026Z,9.38
2022-11-17T01:16:17.512Z,9.38
2022-11-17T01:18:45.928Z,9.37
2022-11-17T01:21:15.048Z,9.35
2022-11-17T01:23:42.870Z,9.36
2022-11-17T01:26:15.382Z,9.37
2022-11-17T01:28:42.818Z,9.35
2022-11-17T01:31:17.983Z,9.35
2022-11-17T01:33:44.659Z,9.36
2022-11-17T01:36:17.233Z,9.38
2022-11-17T01:38:44.489Z,9.39
2022-11-17T01:41:15.717Z,9.41
2022-11-17T01:43:45.144Z,9.42
2022-11-17T01:46:31.400Z,9.43
2022-11-17T01:49:07.288Z,9.45
2022-11-17T01:51:37.563Z,9.46
2022-11-17T01:54:04.303Z,9.45
2022-11-17T01:56:38.418Z,9.46
2022-11-17T01:59:23.680Z,9.48
2022-11-17T02:01:56.880Z,9.48
2022-11-17T02:04:39.945Z,9.51
2022-11-17T02:07:23.744Z,9.52
2022-11-17T02:09:52.171Z,9.52
2022-11-17T02:12:20.460Z,9.52
2022-11-17T02:14:49.340Z,9.53
2022-11-17T02:17:16.185Z,9.54
2022-11-17T02:19:46.620Z,9.55
2022-11-17T02:22:18.894Z,9.57
2022-11-17T02:24:56.545Z,9.57
2022-11-17T02:27:41.536Z,9.59
2022-11-17T02:30:16.800Z,9.61
2022-11-17T02:33:13.275Z,9.63
2022-11-17T02:36:03.332Z,9.64
2022-11-17T02:38:56.392Z,9.62
2022-11-17T02:41:29.568Z,9.64
2022-11-17T02:44:17.051Z,9.67
2022-11-17T02:46:54.491Z,9.65
2022-11-17T02:49:26.266Z,9.68
2022-11-17T02:51:56.892Z,9.69
2022-11-17T02:54:27.994Z,9.69
2022-11-17T02:56:54.579Z,9.69
2022-11-17T02:59:26.767Z,9.71
2022-11-17T03:02:20.143Z,9.73
2022-11-17T03:05:05.559Z,9.72
2022-11-17T03:08:06.004Z,9.74
2022-11-17T03:11:03.979Z,9.75
2022-11-17T03:13:53.637Z,9.74
2022-11-17T03:16:36.907Z,9.73
2022-11-17T03:19:16.817Z,9.73
2022-11-17T03:21:59.357Z,9.77
2022-11-17T03:24:36.815Z,9.76
2022-11-17T03:27:09.911Z,9.75
2022-11-17T03:29:41.025Z,9.75
2022-11-17T03:32:09.414Z,9.75
2022-11-17T03:34:42.028Z,9.77
2022-11-17T03:37:11.845Z,9.78
2022-11-17T03:39:42.145Z,9.79
2022-11-17T03:42:16.323Z,9.79
2022-11-17T03:44:49.111Z,9.80
2022-11-17T03:47:19.340Z,9.80
2022-11-17T03:49:51.831Z,9.83
2022-11-17T03:52:19.198Z,9.81
2022-11-17T03:54:45.663Z,9.83
2022-11-17T03:57:46.433Z,9.86
2022-11-17T04:00:16.755Z,9.83
2022-11-17T04:02:45.379Z,9.83
2022-11-17T04:05:14.375Z,9.83
2022-11-17T04:07:46.658Z,9.84
2022-11-17T04:10:21.689Z,9.87
2022-11-17T04:13:07.792Z,9.87
2022-11-17T04:15:53.119Z,9.89
2022-11-17T04:18:20.215Z,9.89
2022-11-17T04:20:50.411Z,9.89
2022-11-17T04:23:16.765Z,9.88
2022-11-17T04:26:21.291Z,9.89
2022-11-17T04:28:50.000Z,9.90
2022-11-17T04:31:17.823Z,9.92
2022-11-17T04:33:52.696Z,9.95
2022-11-17T04:36:27.444Z,9.97
2022-11-17T04:38:55.706Z,9.95
2022-11-17T04:41:42.139Z,9.95
2022-11-17T04:44:10.252Z,9.93
2022-11-17T04:46:37.886Z,9.93
2022-11-17T04:49:05.268Z,9.91
2022-11-17T04:51:32.391Z,9.88
2022-11-17T04:53:59.496Z,9.88
2022-11-17T04:56:26.945Z,9.89
2022-11-17T04:58:53.679Z,9.89
2022-11-17T05:01:20.979Z,9.90
2022-11-17T05:03:55.044Z,9.92
2022-11-17T05:06:32.026Z,9.95
2022-11-17T05:09:00.020Z,9.94
2022-11-17T05:11:47.343Z,9.94
2022-11-17T05:14:15.868Z,9.95
2022-11-17T05:17:07.383Z,9.95
2022-11-17T05:19:38.312Z,9.97
2022-11-17T05:22:25.442Z,9.97
2022-11-17T05:24:52.904Z,9.99
2022-11-17T05:27:19.910Z,9.98
2022-11-17T05:29:46.489Z,9.98
2022-11-17T05:32:12.850Z,9.98
2022-11-17T05:34:39.375Z,9.99
2022-11-17T05:37:06.400Z,9.99
2022-11-17T05:39:32.824Z,9.98
2022-11-17T05:41:59.229Z,9.98
2022-11-17T05:44:25.588Z,9.98
2022-11-17T05:46:51.939Z,9.98
2022-11-17T05:49:18.299Z,9.96
2022-11-17T05:51:48.562Z,9.93
2022-11-17T05:54:17.715Z,9.92
2022-11-17T05:57:00.315Z,9.94
2022-11-17T05:59:36.641Z,9.91
2022-11-17T06:02:05.073Z,9.91
2022-11-17T06:04:32.488Z,9.89
2022-11-17T06:07:00.584Z,9.89
2022-11-17T06:09:36.625Z,9.90
2022-11-17T06:12:06.143Z,9.88
2022-11-17T06:14:34.257Z,9.87
2022-11-17T06:17:05.329Z,9.88
2022-11-17T06:19:39.866Z,9.88
2022-11-17T06:22:14.553Z,9.86
2022-11-17T06:24:44.674Z,9.88
2022-11-17T06:27:14.515Z,9.87
2022-11-17T06:29:44.666Z,9.86
2022-11-17T06:32:15.835Z,9.86
2022-11-17T06:34:48.040Z,9.87
2022-11-17T06:37:15.716Z,9.88
2022-11-17T06:39:42.035Z,9.90
2022-11-17T06:42:08.460Z,9.90
2022-11-17T06:44:34.794Z,9.91
2022-11-17T06:47:01.411Z,9.92
2022-11-17T06:49:28.166Z,9.92
2022-11-17T06:51:55.145Z,9.93
2022-11-17T06:54:21.600Z,9.92
2022-11-17T06:56:49.682Z,9.94
2022-11-17T06:59:16.294Z,9.95
2022-11-17T07:01:43.431Z,9.94
2022-11-17T07:04:10.071Z,9.94
2022-11-17T07:06:37.806Z,9.95
2022-11-17T07:09:05.487Z,9.96
2022-11-17T07:11:34.641Z,9.96
2022-11-17T07:14:00.995Z,9.96
2022-11-17T07:16:27.612Z,9.96
2022-11-17T07:18:54.022Z,9.94
2022-11-17T07:21:22.395Z,9.96
2022-11-17T07:23:49.964Z,9.97
2022-11-17T07:26:16.432Z,9.96
2022-11-17T07:28:42.874Z,9.97
2022-11-17T07:31:09.662Z,9.96
2022-11-17T07:33:36.696Z,9.96
2022-11-17T07:36:09.471Z,9.98
2022-11-17T07:38:37.940Z,9.97
2022-11-17T07:41:05.966Z,9.98
2022-11-17T07:43:33.946Z,9.96
2022-11-17T07:46:20.683Z,9.98
2022-11-17T07:48:47.154Z,9.95
2022-11-17T07:51:14.164Z,9.93
2022-11-17T07:53:40.674Z,9.93
2022-11-17T07:56:09.532Z,9.94
2022-11-17T07:58:36.677Z,9.92
2022-11-17T08:01:15.535Z,9.95
2022-11-17T08:03:45.090Z,9.92
2022-11-17T08:06:11.893Z,9.89
2022-11-17T08:08:39.101Z,9.88
2022-11-17T08:11:08.202Z,9.88
2022-11-17T08:13:35.277Z,9.84
2022-11-17T08:16:02.215Z,9.82
2022-11-17T08:18:29.753Z,9.81
2022-11-17T08:21:10.709Z,9.78
2022-11-17T08:23:37.845Z,9.77
2022-11-17T08:26:08.431Z,9.74
2022-11-17T08:28:35.810Z,9.74
2022-11-17T08:31:07.180Z,9.75
2022-11-17T08:33:34.108Z,9.72
2022-11-17T08:36:02.264Z,9.72
2022-11-17T08:38:29.827Z,9.74
2022-11-17T08:40:57.117Z,9.75
2022-11-17T08:43:23.589Z,9.78
2022-11-17T08:45:50.585Z,9.77
2022-11-17T08:48:17.268Z,9.74
2022-11-17T08:50:43.671Z,9.71
2022-11-17T08:53:15.072Z,9.72
2022-11-17T08:55:41.845Z,9.70
2022-11-17T08:58:09.288Z,9.68
2022-11-17T09:00:36.233Z,9.65
2022-11-17T09:03:06.867Z,9.66
2022-11-17T09:05:38.530Z,9.63
2022-11-17T09:08:29.638Z,9.62
2022-11-17T09:10:51.837Z,9.62
2022-11-17T09:13:19.211Z,9.63
2022-11-17T09:15:45.816Z,9.65
2022-11-17T09:18:12.652Z,9.68
2022-11-17T09:20:45.349Z,9.71
2022-11-17T09:23:12.698Z,9.74
2022-11-17T09:25:39.942Z,9.76
2022-11-17T09:28:06.465Z,9.77
2022-11-17T09:30:32.955Z,9.79
2022-11-17T09:32:59.486Z,9.80
2022-11-17T09:35:25.952Z,9.79
2022-11-17T09:37:52.304Z,9.80
2022-11-17T09:40:19.747Z,9.83
2022-11-17T09:42:46.710Z,9.83
2022-11-17T09:45:30.077Z,9.84
2022-11-17T09:48:40.361Z,9.85
2022-11-17T09:51:07.408Z,9.87
2022-11-17T09:53:43.246Z,9.84
2022-11-17T09:56:12.214Z,9.83
2022-11-17T09:59:01.440Z,9.87
2022-11-17T10:01:29.063Z,9.87
2022-11-17T10:03:59.044Z,9.89
2022-11-17T10:06:27.526Z,9.91
2022-11-17T10:09:15.348Z,9.90
2022-11-17T10:11:44.260Z,9.86
2022-11-17T10:14:21.923Z,9.83
2022-11-17T10:16:56.826Z,9.84
2022-11-17T10:19:33.787Z,9.85
2022-11-17T10:22:16.266Z,9.84
2022-11-17T10:24:52.138Z,9.80
2022-11-17T10:27:25.370Z,9.80
2022-11-17T10:30:09.981Z,9.82
2022-11-17T10:32:48.209Z,9.82
2022-11-17T10:35:20.925Z,9.80
2022-11-17T10:37:59.598Z,9.79
2022-11-17T10:40:53.554Z,9.82
2022-11-17T10:43:28.655Z,9.78
2022-11-17T10:46:13.212Z,9.74
2022-11-17T10:48:55.405Z,9.75
2022-11-17T10:51:24.823Z,9.71
2022-11-17T10:54:21.183Z,9.74
2022-11-17T10:56:54.667Z,9.72
2022-11-17T10:59:27.098Z,9.71
2022-11-17T11:01:53.738Z,9.73
2022-11-17T11:04:34.433Z,9.77
2022-11-17T11:07:13.770Z,9.78
2022-11-17T11:10:03.273Z,9.84
2022-11-17T11:12:52.215Z,9.87
2022-11-17T11:15:21.452Z,9.84
2022-11-17T11:17:48.264Z,9.84
2022-11-17T11:20:17.710Z,9.82
2022-11-17T11:22:49.779Z,9.84
2022-11-17T11:25:34.815Z,9.85
2022-11-17T11:28:10.325Z,9.86
2022-11-17T11:31:04.501Z,9.91
2022-11-17T11:33:38.360Z,9.94
2022-11-17T11:36:29.444Z,9.92
2022-11-17T11:39:30.096Z,9.93
2022-11-17T11:42:18.161Z,9.86
2022-11-17T11:44:58.161Z,9.81
2022-11-17T11:47:55.825Z,9.82
2022-11-17T11:50:25.994Z,9.82
2022-11-17T11:53:20.067Z,9.83
2022-11-17T11:55:52.649Z,9.82
2022-11-17T11:58:24.317Z,9.79
2022-11-17T12:00:56.321Z,9.77
2022-11-17T12:03:37.637Z,9.74
2022-11-17T12:06:39.502Z,9.72
2022-11-17T12:09:33.217Z,9.75
2022-11-17T12:12:01.773Z,9.72
2022-11-17T12:14:33.412Z,9.68
2022-11-17T12:17:07.663Z,9.68
2022-11-17T12:19:51.260Z,9.68
2022-11-17T12:22:29.944Z,9.67
2022-11-17T12:24:59.186Z,9.60
2022-11-17T12:27:43.561Z,9.61
2022-11-17T12:30:33.356Z,9.62
2022-11-17T12:33:01.479Z,9.59
2022-11-17T12:35:30.220Z,9.59
2022-11-17T12:38:18.032Z,9.63
2022-11-17T12:40:45.850Z,9.61
2022-11-17T12:43:15.428Z,9.63
2022-11-17T12:46:00.630Z,9.66
2022-11-17T12:48:34.844Z,9.66
2022-11-17T12:51:30.445Z,9.62
2022-11-17T12:54:10.955Z,9.62
2022-11-17T12:56:49.368Z,9.63
2022-11-17T12:59:56.220Z,9.63
2022-11-17T13:02:32.824Z,9.62
2022-11-17T13:05:11.586Z,9.60
2022-11-17T13:07:38.139Z,9.58
2022-11-17T13:10:05.120Z,9.59
2022-11-17T13:12:33.893Z,9.61
2022-11-17T13:15:05.105Z,9.62
2022-11-17T13:17:43.189Z,9.63
2022-11-17T13:20:27.395Z,9.67
2022-11-17T13:23:06.582Z,9.66
2022-11-17T13:25:34.398Z,9.67
2022-11-17T13:28:04.774Z,9.65
2022-11-17T13:30:33.192Z,9.65
2022-11-17T13:33:02.250Z,9.65
2022-11-17T13:35:30.066Z,9.63
2022-11-17T13:38:11.406Z,9.62
2022-11-17T13:40:40.494Z,9.59
2022-11-17T13:43:12.179Z,9.59
2022-11-17T13:45:38.823Z,9.58
2022-11-17T13:48:05.429Z,9.58
2022-11-17T13:50:31.843Z,9.59
2022-11-17T13:53:01.730Z,9.56
2022-11-17T13:55:28.300Z,9.58
2022-11-17T13:57:59.003Z,9.57
2022-11-17T14:00:26.240Z,9.56
2022-11-17T14:03:36.013Z,9.58
2022-11-17T14:06:05.101Z,9.54
2022-11-17T14:08:33.551Z,9.53
2022-11-17T14:11:12.220Z,9.55
2022-11-17T14:14:01.033Z,9.56
2022-11-17T14:16:34.607Z,9.53
2022-11-17T14:19:24.117Z,9.54
2022-11-17T14:22:03.259Z,9.57
2022-11-17T14:24:32.007Z,9.56
2022-11-17T14:26:58.532Z,9.56
2022-11-17T14:29:25.893Z,9.60
2022-11-17T14:31:52.244Z,9.62
2022-11-17T14:34:18.660Z,9.63
2022-11-17T14:36:46.636Z,9.64
2022-11-17T14:39:15.641Z,9.65
2022-11-17T14:41:43.926Z,9.64
2022-11-17T14:44:13.509Z,9.65
2022-11-17T14:46:40.368Z,9.66
2022-11-17T14:49:07.180Z,9.67
2022-11-17T14:51:34.482Z,9.67
2022-11-17T14:54:01.316Z,9.67
2022-11-17T14:56:27.865Z,9.67
2022-11-17T14:58:59.451Z,9.69
2022-11-17T15:01:31.896Z,9.68
2022-11-17T15:04:15.424Z,9.67
2022-11-17T15:06:47.781Z,9.68
2022-11-17T15:09:16.426Z,9.68
2022-11-17T15:11:42.939Z,9.70
2022-11-17T15:14:10.778Z,9.70
2022-11-17T15:16:37.172Z,9.71
2022-11-17T15:19:03.589Z,9.70
2022-11-17T15:21:30.071Z,9.71
2022-11-17T15:23:56.404Z,9.71
2022-11-17T15:26:26.820Z,9.71
2022-11-17T15:28:57.771Z,9.71
2022-11-17T15:31:24.322Z,9.71
2022-11-17T15:33:52.063Z,9.70
2022-11-17T15:36:20.447Z,9.73
2022-11-17T15:38:57.675Z,9.72
2022-11-17T15:41:25.458Z,9.73
2022-11-17T15:44:04.975Z,9.73
2022-11-17T15:46:32.197Z,9.73
2022-11-17T15:48:58.789Z,9.73
2022-11-17T15:51:28.957Z,9.74
2022-11-17T15:54:01.981Z,9.76
2022-11-17T15:56:37.619Z,9.74
2022-11-17T15:59:05.450Z,9.73
2022-11-17T16:01:40.128Z,9.73
2022-11-17T16:04:11.583Z,9.71
2022-11-17T16:06:39.857Z,9.70
2022-11-17T16:09:06.691Z,9.70
2022-11-17T16:11:33.908Z,9.71
2022-11-17T16:14:00.872Z,9.71
2022-11-17T16:16:30.169Z,9.71
2022-11-17T16:18:57.338Z,9.70
2022-11-17T16:21:24.519Z,9.70
2022-11-17T16:24:06.302Z,9.69
2022-11-17T16:26:32.744Z,9.67
2022-11-17T16:29:01.540Z,9.67
2022-11-17T16:31:30.728Z,9.66
2022-11-17T16:34:02.627Z,9.67
2022-11-17T16:36:36.286Z,9.66
2022-11-17T16:39:11.818Z,9.66
2022-11-17T16:41:41.066Z,9.65
2022-11-17T16:44:13.995Z,9.66
2022-11-17T16:46:48.234Z,9.66
2022-11-17T16:49:16.910Z,9.65
2022-11-17T16:51:48.774Z,9.65
2022-11-17T16:54:15.536Z,9.63
2022-11-17T16:56:42.356Z,9.64
2022-11-17T16:59:10.727Z,9.65
2022-11-17T17:01:37.939Z,9.65
2022-11-17T17:04:10.136Z,9.67
2022-11-17T17:06:40.364Z,9.68
2022-11-17T17:09:09.798Z,9.67
2022-11-17T17:11:36.732Z,9.68
2022-11-17T17:14:05.832Z,9.68
2022-11-17T17:16:37.415Z,9.69
2022-11-17T17:19:13.406Z,9.69
2022-11-17T17:21:42.883Z,9.68
2022-11-17T17:24:10.341Z,9.66
2022-11-17T17:26:37.037Z,9.67
2022-11-17T17:29:05.887Z,9.66
2022-11-17T17:31:37.563Z,9.68
2022-11-17T17:34:06.296Z,9.56
2022-11-17T17:36:34.595Z,9.62
2022-11-17T17:39:02.045Z,9.65
2022-11-17T17:41:31.402Z,9.65
2022-11-17T17:44:00.460Z,9.63
2022-11-17T17:46:29.884Z,9.62
2022-11-17T17:48:57.566Z,9.62
2022-11-17T17:51:25.886Z,9.62
2022-11-17T17:53:54.341Z,9.63
2022-11-17T17:56:22.178Z,9.65
2022-11-17T17:58:50.579Z,9.65
2022-11-17T18:01:25.378Z,9.65
2022-11-17T18:03:54.428Z,9.62
2022-11-17T18:06:22.418Z,9.61
2022-11-17T18:08:50.385Z,9.61
2022-11-17T18:11:19.576Z,9.62
2022-11-17T18:13:48.789Z,9.62
2022-11-17T18:16:21.694Z,9.62
2022-11-17T18:18:49.093Z,9.59
2022-11-17T18:21:18.924Z,9.59
2022-11-17T18:23:45.825Z,9.59
2022-11-17T18:26:26.110Z,9.64
2022-11-17T18:28:54.253Z,9.59
2022-11-17T18:31:22.182Z,9.57
2022-11-17T18:33:53.120Z,9.56
2022-11-17T18:36:20.110Z,9.53
2022-11-17T18:38:46.574Z,9.54
2022-11-17T18:41:15.968Z,9.53
2022-11-17T18:43:43.666Z,9.52
2022-11-17T18:46:21.668Z,9.54
2022-11-17T18:48:51.647Z,9.51
2022-11-17T18:51:21.381Z,9.51
2022-11-17T18:53:49.838Z,9.48
2022-11-17T18:56:19.473Z,9.47
2022-11-17T18:58:46.787Z,9.45
2022-11-17T19:01:15.546Z,9.43
2022-11-17T19:03:43.990Z,9.42
2022-11-17T19:06:12.147Z,9.42
2022-11-17T19:08:38.767Z,9.40
2022-11-17T19:11:07.400Z,9.39
2022-11-17T19:13:36.403Z,9.38
2022-11-17T19:16:14.604Z,9.38
2022-11-17T19:18:41.939Z,9.35
2022-11-17T19:21:19.904Z,9.37
2022-11-17T19:23:51.923Z,9.33
2022-11-17T19:26:21.454Z,9.30
2022-11-17T19:28:50.885Z,9.29
2022-11-17T19:31:19.997Z,9.26
2022-11-17T19:33:48.043Z,9.24
2022-11-17T19:36:15.644Z,9.22
2022-11-17T19:38:43.202Z,9.21
2022-11-17T19:41:26.865Z,9.22
2022-11-17T19:43:58.746Z,9.18
2022-11-17T19:46:27.552Z,9.16
2022-11-17T19:48:55.349Z,9.14
2022-11-17T19:51:27.245Z,9.13
2022-11-17T19:53:56.333Z,9.13
2022-11-17T19:56:24.245Z,9.12
2022-11-17T19:58:51.292Z,9.11
2022-11-17T20:01:29.060Z,9.10
2022-11-17T20:03:57.305Z,9.09
2022-11-17T20:06:27.270Z,9.07
2022-11-17T20:08:55.384Z,9.07
2022-11-17T20:11:24.524Z,9.06
2022-11-17T20:13:50.991Z,9.06
2022-11-17T20:16:19.960Z,9.04
2022-11-17T20:18:49.916Z,9.04
2022-11-17T20:21:16.428Z,9.02
2022-11-17T20:23:43.599Z,9.01
2022-11-17T20:26:17.993Z,9.02
2022-11-17T20:28:45.099Z,8.99
2022-11-17T20:31:13.753Z,9.00
2022-11-17T20:33:41.850Z,8.98
2022-11-17T20:36:11.058Z,8.97
2022-11-17T20:38:37.519Z,8.96
2022-11-17T20:41:04.644Z,8.95
2022-11-17T20:43:31.349Z,8.94
2022-11-17T20:45:58.347Z,8.92
2022-11-17T20:48:26.191Z,8.91
2022-11-17T20:51:06.551Z,8.91
2022-11-17T20:53:34.255Z,8.89
2022-11-17T20:56:02.412Z,8.87
2022-11-17T20:58:29.964Z,8.85
2022-11-17T21:00:56.696Z,8.84
2022-11-17T21:03:23.876Z,8.83
2022-11-17T21:05:58.372Z,8.83
2022-11-17T21:08:30.090Z,8.81
2022-11-17T21:11:01.638Z,8.81
2022-11-17T21:13:30.345Z,8.80
2022-11-17T21:16:14.177Z,8.83
2022-11-17T21:18:49.721Z,8.81
2022-11-17T21:21:16.147Z,8.77
2022-11-17T21:23:43.859Z,8.77
2022-11-17T21:26:17.032Z,8.76
2022-11-17T21:28:43.515Z,8.75
2022-11-17T21:31:14.511Z,8.75
2022-11-17T21:33:41.735Z,8.72
2022-11-17T21:36:14.029Z,8.72
2022-11-17T21:38:41.049Z,8.69
2022-11-17T21:41:13.230Z,8.68
2022-11-17T21:43:40.920Z,8.66
2022-11-17T21:46:13.786Z,8.67
2022-11-17T21:48:40.931Z,8.64
2022-11-17T21:51:14.996Z,8.65
2022-11-17T21:53:41.394Z,8.60
2022-11-17T21:56:08.126Z,8.58
2022-11-17T21:58:34.965Z,8.57
2022-11-17T22:01:15.566Z,8.59
2022-11-17T22:03:42.842Z,8.55
2022-11-17T22:06:12.069Z,8.54
2022-11-17T22:08:40.874Z,8.52
2022-11-17T22:11:12.304Z,8.52
2022-11-17T22:13:39.488Z,8.49
2022-11-17T22:16:09.526Z,8.49
2022-11-17T22:18:36.346Z,8.48
2022-11-17T22:21:02.801Z,8.46
2022-11-17T22:23:30.342Z,8.44
2022-11-17T22:26:02.772Z,8.44
2022-11-17T22:28:29.658Z,8.42
2022-11-17T22:30:56.424Z,8.41
2022-11-17T22:33:23.408Z,8.40
2022-11-17T22:35:50.351Z,8.38
2022-11-17T22:38:17.207Z,8.37
2022-11-17T22:40:43.940Z,8.35
2022-11-17T22:43:14.659Z,8.34
2022-11-17T22:45:41.867Z,8.32
2022-11-17T22:48:08.805Z,8.30
2022-11-17T22:50:36.052Z,8.31
2022-11-17T22:53:02.843Z,8.30
2022-11-17T22:55:29.523Z,8.29
2022-11-17T22:57:55.940Z,8.28
2022-11-17T23:00:22.491Z,8.27
2022-11-17T23:02:49.155Z,8.25
2022-11-17T23:05:16.132Z,8.23
2022-11-17T23:07:42.663Z,8.21
2022-11-17T23:10:09.928Z,8.17
2022-11-17T23:12:36.560Z,8.16
2022-11-17T23:15:03.156Z,8.15
2022-11-17T23:17:29.715Z,8.14
2022-11-17T23:19:56.128Z,8.12
2022-11-17T23:22:22.547Z,8.12
2022-11-17T23:24:48.953Z,8.09
2022-11-17T23:27:15.350Z,8.09
2022-11-17T23:29:41.779Z,8.08
2022-11-17T23:32:08.281Z,8.07
2022-11-17T23:34:34.744Z,8.05
2022-11-17T23:37:03.924Z,8.04
2022-11-17T23:39:30.618Z,8.03
2022-11-17T23:41:57.018Z,8.01
2022-11-17T23:44:23.409Z,8.01
2022-11-17T23:46:49.769Z,7.99
2022-11-17T23:49:16.826Z,7.95
2022-11-17T23:51:43.399Z,7.94
2022-11-17T23:54:13.102Z,7.94
2022-11-17T23:56:39.913Z,7.92
2022-11-17T23:59:08.133Z,7.92
